VIP Ground Handling & Aviation Services

 

 
Airport

RHODES (RHO)

Ground Handling Services – RHO/LGRP

VIP Ground Handling

State Ground Handling

Military Ground Handling

Slot & PPR Coordination

Fuel Arrangements

Crew Accommodation Arrangements

Crew Transportation

Customs & Immigration Assistance

Executive Terminal Services

Crew Lounge

Flight Planning, Weather Briefing and NOTAMs

Catering Arrangements

Security Services

Aircraft Maintenance

Airport Customs & Immigration

Concierge Services

VIP Meet & Greet

Helicopter Transfers

Chauffeur Services

Aircraft Charter

Yacht Charter

Hire & Rental

Entertainment & Hospitality

Health & Beauty

Delivery Services

Conference & Meeting rooms

Rhodes International Airport ``Diagoras``, Rhodes 851 06

+30 210 35 33 331 (24/7)

+30 694 6200 300 (24/7)

greece@alphajetservices.com

Rhodes Airport
Airport Type
• Civil
Operating Hours
•24H
Fuel Available
•JET A1 / AVGAS
Fire Category
•8
Approaches
•ILS VOR / DME
Available data for LGRP from the past 2 hours
RHODES/DIAGORAS
Metar
LGRP 260950Z 26011KT CAVOK 31/25 Q1009 NOSIG

09:50 UTC

Wind: 260° 11kt

Visibility:

Sky:

Temp: 31 deg C / 87.8 deg F

Dewpoint: 25 deg C / 77 deg F

Pressure: 1009 hPa

TAF
TAF LGRP 260500Z 2606/2706 25012KT 9999 FEW020